createdAt,value
2023-09-17T00:01:06.172Z,4.68
2023-09-17T00:04:28.866Z,4.88
2023-09-17T00:07:32.718Z,5.15
2023-09-17T00:10:38.434Z,4.60
2023-09-17T00:13:43.115Z,5.03
2023-09-17T00:16:47.695Z,4.85
2023-09-17T00:19:53.346Z,5.00
2023-09-17T00:22:57.051Z,5.30
2023-09-17T00:26:01.038Z,4.80
2023-09-17T00:29:05.813Z,4.97
2023-09-17T00:32:10.206Z,5.53
2023-09-17T00:35:15.827Z,4.65
2023-09-17T00:38:19.543Z,5.40
2023-09-17T00:41:23.626Z,4.70
2023-09-17T00:44:27.932Z,4.72
2023-09-17T00:47:32.727Z,5.20
2023-09-17T00:50:40.616Z,4.63
2023-09-17T00:53:45.238Z,4.80
2023-09-17T00:56:49.644Z,4.68
2023-09-17T00:59:53.725Z,4.50
2023-09-17T01:02:57.808Z,5.10
2023-09-17T01:06:05.229Z,4.47
2023-09-17T01:09:09.771Z,4.53
2023-09-17T01:12:14.325Z,4.88
2023-09-17T01:15:18.368Z,5.22
2023-09-17T01:18:23.395Z,4.65
2023-09-17T01:21:37.366Z,5.07
2023-09-17T01:24:48.813Z,4.75
2023-09-17T01:27:54.651Z,4.80
2023-09-17T01:30:58.938Z,4.57
2023-09-17T01:34:03.976Z,4.93
2023-09-17T01:37:16.968Z,4.75
2023-09-17T01:40:20.909Z,5.07
2023-09-17T01:43:26.515Z,4.60
2023-09-17T01:46:31.697Z,5.00
2023-09-17T01:49:36.479Z,4.75
2023-09-17T01:52:42.335Z,5.13
2023-09-17T01:55:46.157Z,4.90
2023-09-17T01:58:51.654Z,4.50
2023-09-17T02:01:55.850Z,5.17
2023-09-17T02:04:59.822Z,5.07
2023-09-17T02:08:05.016Z,5.05
2023-09-17T02:11:08.881Z,4.40
2023-09-17T02:14:14.303Z,4.37
2023-09-17T02:17:19.286Z,4.80
2023-09-17T02:20:23.082Z,5.40
2023-09-17T02:23:28.282Z,4.40
2023-09-17T02:26:32.076Z,4.63
2023-09-17T02:29:38.157Z,5.22
2023-09-17T02:32:43.161Z,5.10
2023-09-17T02:35:46.867Z,4.83
2023-09-17T02:38:51.050Z,5.45
2023-09-17T02:41:54.820Z,5.38
2023-09-17T02:45:00.203Z,5.50
2023-09-17T02:48:04.189Z,5.57
2023-09-17T02:51:07.967Z,5.05
2023-09-17T02:54:12.262Z,5.57
2023-09-17T02:57:16.037Z,5.53
2023-09-17T03:00:22.981Z,5.60
2023-09-17T03:03:27.126Z,6.15
2023-09-17T03:06:32.562Z,5.27
2023-09-17T03:09:36.820Z,4.97
2023-09-17T03:12:40.732Z,5.00
2023-09-17T03:15:46.713Z,5.72
2023-09-17T03:18:51.522Z,5.33
2023-09-17T03:21:55.273Z,5.68
2023-09-17T03:25:04.271Z,5.45
2023-09-17T03:28:13.010Z,5.40
2023-09-17T03:31:19.833Z,5.72
2023-09-17T03:34:26.343Z,5.45
2023-09-17T03:37:30.239Z,6.03
2023-09-17T03:40:34.450Z,5.93
2023-09-17T03:43:38.254Z,5.53
2023-09-17T03:46:43.911Z,5.97
2023-09-17T03:49:48.182Z,5.85
2023-09-17T03:52:55.066Z,5.50
2023-09-17T03:56:00.075Z,6.18
2023-09-17T03:59:05.909Z,6.13
2023-09-17T04:02:11.232Z,6.10
2023-09-17T04:05:15.647Z,6.40
2023-09-17T04:08:19.679Z,6.50
2023-09-17T04:11:23.824Z,5.90
2023-09-17T04:14:27.700Z,5.93
2023-09-17T04:17:33.062Z,6.00
2023-09-17T04:20:37.880Z,6.20
2023-09-17T04:23:42.519Z,6.30
2023-09-17T04:26:47.341Z,6.50
2023-09-17T04:29:51.625Z,6.45
2023-09-17T04:32:57.837Z,5.23
2023-09-17T04:36:02.166Z,6.30
2023-09-17T04:39:06.304Z,5.78
2023-09-17T04:42:10.628Z,6.05
2023-09-17T04:45:23.177Z,6.15
2023-09-17T04:48:29.039Z,5.80
2023-09-17T04:51:33.217Z,5.38
2023-09-17T04:54:37.085Z,5.83
2023-09-17T04:57:41.335Z,5.30
2023-09-17T05:00:45.661Z,6.00
2023-09-17T05:03:51.700Z,6.50
2023-09-17T05:06:56.206Z,5.82
2023-09-17T05:10:00.111Z,5.60
2023-09-17T05:13:04.968Z,5.93
2023-09-17T05:16:09.967Z,5.10
2023-09-17T05:19:15.928Z,5.75
2023-09-17T05:22:19.881Z,5.43
2023-09-17T05:25:23.944Z,6.40
2023-09-17T05:28:28.280Z,6.05
2023-09-17T05:31:33.996Z,5.82
2023-09-17T05:34:40.046Z,7.13
2023-09-17T05:37:44.929Z,6.05
2023-09-17T05:40:48.767Z,6.70
2023-09-17T05:43:53.069Z,6.55
2023-09-17T05:46:57.564Z,6.87
2023-09-17T05:50:04.811Z,6.55
2023-09-17T05:53:12.004Z,7.30
2023-09-17T05:56:15.753Z,7.03
2023-09-17T05:59:21.135Z,6.97
2023-09-17T06:02:26.258Z,6.47
2023-09-17T06:05:31.489Z,6.50
2023-09-17T06:08:35.557Z,6.57
2023-09-17T06:11:39.508Z,7.15
2023-09-17T06:14:44.337Z,7.10
2023-09-17T06:17:48.634Z,7.18
2023-09-17T06:20:54.677Z,7.47
2023-09-17T06:23:59.106Z,6.90
2023-09-17T06:27:03.157Z,8.05
2023-09-17T06:30:09.023Z,7.40
2023-09-17T06:33:12.920Z,7.03
2023-09-17T06:36:18.546Z,7.40
2023-09-17T06:39:22.824Z,7.05
2023-09-17T06:42:27.218Z,7.27
2023-09-17T06:45:32.676Z,6.93
2023-09-17T06:48:36.431Z,7.28
2023-09-17T06:51:41.761Z,7.22
2023-09-17T06:54:45.644Z,7.20
2023-09-17T06:57:49.336Z,6.95
2023-09-17T07:00:54.378Z,7.55
2023-09-17T07:03:58.404Z,7.30
2023-09-17T07:07:03.694Z,7.07
2023-09-17T07:10:09.376Z,7.53
2023-09-17T07:13:15.032Z,7.00
2023-09-17T07:16:19.407Z,7.90
2023-09-17T07:19:23.202Z,6.47
2023-09-17T07:22:28.580Z,6.10
2023-09-17T07:25:33.456Z,6.57
2023-09-17T07:28:37.341Z,6.38
2023-09-17T07:31:43.893Z,6.63
2023-09-17T07:34:47.648Z,5.60
2023-09-17T07:37:53.143Z,5.93
2023-09-17T07:40:57.626Z,6.13
2023-09-17T07:44:01.395Z,5.87
2023-09-17T07:47:07.517Z,5.63
2023-09-17T07:50:11.934Z,5.22
2023-09-17T07:53:17.376Z,5.15
2023-09-17T07:56:23.727Z,5.03
2023-09-17T07:59:29.041Z,4.97
2023-09-17T08:02:33.559Z,5.05
2023-09-17T08:05:37.284Z,4.72
2023-09-17T08:08:47.124Z,5.03
2023-09-17T08:11:51.869Z,4.78
2023-09-17T08:14:55.581Z,4.70
2023-09-17T08:17:59.913Z,4.20
2023-09-17T08:21:05.071Z,4.70
2023-09-17T08:24:11.488Z,3.78
2023-09-17T08:27:18.271Z,4.65
2023-09-17T08:30:21.974Z,3.60
2023-09-17T08:33:25.881Z,3.78
2023-09-17T08:36:29.597Z,3.92
2023-09-17T08:39:35.497Z,3.70
2023-09-17T08:42:41.272Z,3.70
2023-09-17T08:45:45.189Z,2.92
2023-09-17T08:48:49.243Z,3.60
2023-09-17T08:51:58.270Z,3.40
2023-09-17T08:55:09.201Z,2.88
2023-09-17T08:58:18.072Z,2.85
2023-09-17T09:01:26.198Z,3.17
2023-09-17T09:04:32.234Z,3.43
2023-09-17T09:07:37.229Z,3.28
2023-09-17T09:10:43.120Z,2.60
2023-09-17T09:13:51.572Z,2.60
2023-09-17T09:16:56.756Z,2.33
2023-09-17T09:20:00.860Z,2.30
2023-09-17T09:23:07.326Z,1.90
2023-09-17T09:26:12.687Z,2.30
2023-09-17T09:29:16.685Z,1.90
2023-09-17T09:32:21.307Z,2.17
2023-09-17T09:35:26.280Z,2.50
2023-09-17T09:38:30.795Z,3.00
2023-09-17T09:41:36.297Z,2.17
2023-09-17T09:44:40.476Z,1.98
2023-09-17T09:47:50.201Z,2.20
2023-09-17T09:50:54.845Z,2.20
2023-09-17T09:53:58.696Z,2.20
2023-09-17T09:57:06.162Z,2.33
2023-09-17T10:00:16.248Z,2.60
2023-09-17T10:03:21.803Z,2.65
2023-09-17T10:06:26.128Z,2.63
2023-09-17T10:09:30.377Z,2.40
2023-09-17T10:12:36.452Z,2.60
2023-09-17T10:15:43.382Z,2.08
2023-09-17T10:18:47.854Z,1.88
2023-09-17T10:21:55.420Z,2.10
2023-09-17T10:24:59.178Z,2.30
2023-09-17T10:28:06.743Z,3.40
2023-09-17T10:31:12.007Z,2.58
2023-09-17T10:34:18.914Z,2.30
2023-09-17T10:37:24.225Z,2.20
2023-09-17T10:40:29.345Z,2.00
2023-09-17T10:43:37.413Z,1.92
2023-09-17T10:46:46.493Z,2.22
2023-09-17T10:49:51.418Z,1.88
2023-09-17T10:52:55.490Z,2.20
2023-09-17T10:56:05.476Z,2.10
2023-09-17T10:59:14.592Z,1.90
2023-09-17T11:02:20.259Z,2.17
2023-09-17T11:05:27.691Z,2.30
2023-09-17T11:08:31.963Z,2.27
2023-09-17T11:11:37.031Z,2.20
2023-09-17T11:14:43.020Z,2.08
2023-09-17T11:17:48.941Z,2.00
2023-09-17T11:21:08.414Z,1.98
2023-09-17T11:24:14.009Z,2.00
2023-09-17T11:27:21.227Z,1.92
2023-09-17T11:30:26.717Z,1.92
2023-09-17T11:33:31.966Z,2.47
2023-09-17T11:36:36.130Z,2.00
2023-09-17T11:39:51.698Z,2.23
2023-09-17T11:42:55.540Z,1.98
2023-09-17T11:46:01.473Z,2.08
2023-09-17T11:49:09.248Z,2.40
2023-09-17T11:52:14.246Z,2.35
2023-09-17T11:55:24.691Z,2.30
2023-09-17T11:58:33.530Z,2.13
2023-09-17T12:01:44.424Z,2.20
2023-09-17T12:04:50.544Z,2.25
2023-09-17T12:07:55.476Z,2.38
2023-09-17T12:11:23.248Z,2.33
2023-09-17T12:14:27.717Z,2.27
2023-09-17T12:17:39.495Z,2.50
2023-09-17T12:20:58.222Z,2.47
2023-09-17T12:24:06.642Z,2.60
2023-09-17T12:27:36.476Z,2.13
2023-09-17T12:30:41.073Z,2.50
2023-09-17T12:33:46.455Z,2.30
2023-09-17T12:36:50.402Z,2.58
2023-09-17T12:39:54.590Z,2.65
2023-09-17T12:42:58.657Z,2.93
2023-09-17T12:46:02.970Z,2.93
2023-09-17T12:49:08.793Z,2.60
2023-09-17T12:52:13.596Z,2.70
2023-09-17T12:55:18.216Z,2.58
2023-09-17T12:58:23.128Z,2.10
2023-09-17T13:01:28.651Z,2.10
2023-09-17T13:04:39.281Z,2.28
2023-09-17T13:07:43.436Z,2.50
2023-09-17T13:10:47.190Z,1.98
2023-09-17T13:13:53.193Z,2.33
2023-09-17T13:16:57.345Z,2.03
2023-09-17T13:20:03.201Z,2.20
2023-09-17T13:23:07.416Z,2.05
2023-09-17T13:26:11.583Z,1.90
2023-09-17T13:29:15.531Z,2.27
2023-09-17T13:32:21.575Z,2.20
2023-09-17T13:35:29.277Z,1.88
2023-09-17T13:38:35.191Z,2.25
2023-09-17T13:41:38.905Z,2.25
2023-09-17T13:44:43.093Z,2.47
2023-09-17T13:47:46.748Z,2.30
2023-09-17T13:50:52.671Z,1.90
2023-09-17T13:53:56.557Z,2.20
2023-09-17T13:57:00.212Z,2.10
2023-09-17T14:00:04.411Z,2.60
2023-09-17T14:03:17.442Z,2.00
2023-09-17T14:06:22.876Z,2.20
2023-09-17T14:09:26.787Z,1.90
2023-09-17T14:12:30.468Z,2.13
2023-09-17T14:15:35.760Z,2.30
2023-09-17T14:18:39.522Z,2.50
2023-09-17T14:21:44.849Z,2.90
2023-09-17T14:24:48.785Z,2.63
2023-09-17T14:27:53.073Z,2.50
2023-09-17T14:30:57.189Z,2.03
2023-09-17T14:34:01.351Z,2.20
2023-09-17T14:37:06.764Z,2.70
2023-09-17T14:40:11.236Z,2.63
2023-09-17T14:43:15.104Z,2.78
2023-09-17T14:46:19.364Z,2.90
2023-09-17T14:49:23.345Z,2.70
2023-09-17T14:52:28.819Z,2.50
2023-09-17T14:55:32.727Z,2.42
2023-09-17T14:58:36.213Z,2.22
2023-09-17T15:01:59.039Z,2.13
2023-09-17T15:05:03.926Z,2.30
2023-09-17T15:08:09.623Z,2.60
2023-09-17T15:11:13.223Z,2.20
2023-09-17T15:14:17.288Z,2.40
2023-09-17T15:17:21.929Z,2.67
2023-09-17T15:20:26.423Z,1.97
2023-09-17T15:23:32.036Z,2.35
2023-09-17T15:26:35.965Z,2.30
2023-09-17T15:29:39.704Z,1.85
2023-09-17T15:32:44.027Z,2.27
2023-09-17T15:35:48.053Z,2.50
2023-09-17T15:38:53.321Z,2.67
2023-09-17T15:41:58.542Z,2.40
2023-09-17T15:45:02.400Z,2.53
2023-09-17T15:48:06.301Z,2.33
2023-09-17T15:51:11.010Z,2.10
2023-09-17T15:54:16.635Z,2.25
2023-09-17T15:57:20.614Z,1.95
2023-09-17T16:00:24.428Z,2.30
2023-09-17T16:03:28.485Z,2.67
2023-09-17T16:06:32.279Z,1.80
2023-09-17T16:09:37.652Z,2.53
2023-09-17T16:12:41.485Z,2.30
2023-09-17T16:15:45.120Z,2.20
2023-09-17T16:18:49.176Z,2.17
2023-09-17T16:21:53.071Z,2.10
2023-09-17T16:24:58.189Z,1.98
2023-09-17T16:28:02.154Z,2.10
2023-09-17T16:31:06.039Z,2.33
2023-09-17T16:34:09.949Z,1.90
2023-09-17T16:37:13.595Z,2.10
2023-09-17T16:40:19.125Z,2.25
2023-09-17T16:43:22.639Z,2.20
2023-09-17T16:46:26.529Z,2.47
2023-09-17T16:49:30.313Z,2.47
2023-09-17T16:52:34.227Z,2.38
2023-09-17T16:55:39.676Z,2.22
2023-09-17T16:58:43.672Z,2.53
2023-09-17T17:01:47.328Z,2.50
2023-09-17T17:04:55.642Z,3.43
2023-09-17T17:07:59.360Z,3.17
2023-09-17T17:11:04.955Z,4.13
2023-09-17T17:14:08.534Z,4.40
2023-09-17T17:17:12.383Z,3.22
2023-09-17T17:20:16.083Z,2.90
2023-09-17T17:23:19.860Z,2.80
2023-09-17T17:26:25.049Z,3.03
2023-09-17T17:29:29.002Z,3.30
2023-09-17T17:32:33.430Z,3.95
2023-09-17T17:35:37.404Z,3.87
2023-09-17T17:38:42.037Z,3.90
2023-09-17T17:45:04.022Z,3.58
2023-09-17T17:48:07.593Z,3.60
2023-09-17T17:51:11.259Z,3.30
2023-09-17T17:54:14.828Z,3.00
2023-09-17T17:57:20.175Z,3.90
2023-09-17T18:00:25.384Z,3.72
2023-09-17T18:03:29.138Z,3.50
2023-09-17T18:06:32.682Z,3.27
2023-09-17T18:09:35.951Z,3.45
2023-09-17T18:12:40.735Z,3.60
2023-09-17T18:15:45.645Z,3.88
2023-09-17T18:22:27.166Z,3.47
2023-09-17T18:25:32.861Z,3.90
2023-09-17T18:28:36.323Z,3.65
2023-09-17T18:31:41.115Z,4.07
2023-09-17T18:34:44.598Z,3.30
2023-09-17T18:37:48.081Z,3.90
2023-09-17T18:40:52.374Z,4.85
2023-09-17T18:43:55.965Z,4.45
2023-09-17T18:47:00.889Z,4.18
2023-09-17T18:50:04.509Z,4.90
2023-09-17T18:53:08.006Z,4.05
2023-09-17T18:56:11.486Z,3.58
2023-09-17T18:59:15.547Z,3.70
2023-09-17T19:02:20.622Z,3.53
2023-09-17T19:05:24.932Z,3.80
2023-09-17T19:08:28.608Z,3.72
2023-09-17T19:11:32.530Z,3.90
2023-09-17T19:14:36.020Z,3.50
2023-09-17T19:17:40.945Z,3.83
2023-09-17T19:20:45.183Z,4.35
2023-09-17T19:23:49.083Z,4.47
2023-09-17T19:26:52.857Z,4.13
2023-09-17T19:29:56.268Z,4.35
2023-09-17T19:33:01.359Z,4.20
2023-09-17T19:36:05.172Z,4.10
2023-09-17T19:39:09.290Z,4.60
2023-09-17T19:42:13.688Z,4.32
2023-09-17T19:45:17.281Z,4.68
2023-09-17T19:48:22.326Z,4.85
2023-09-17T19:51:25.925Z,4.60
2023-09-17T19:54:29.368Z,4.40
2023-09-17T19:57:32.865Z,4.22
2023-09-17T20:00:36.513Z,4.95
2023-09-17T20:03:41.439Z,4.97
2023-09-17T20:06:54.744Z,4.63
2023-09-17T20:09:59.257Z,5.22
2023-09-17T20:13:02.952Z,5.22
2023-09-17T20:16:06.675Z,5.32
2023-09-17T20:19:12.814Z,5.30
2023-09-17T20:22:16.366Z,5.43
2023-09-17T20:25:22.884Z,5.30
2023-09-17T20:28:26.738Z,5.47
2023-09-17T20:31:30.267Z,5.30
2023-09-17T20:34:35.199Z,5.35
2023-09-17T20:37:38.846Z,5.57
2023-09-17T20:40:42.359Z,5.65
2023-09-17T20:43:45.895Z,5.70
2023-09-17T20:46:49.437Z,5.15
2023-09-17T20:49:54.185Z,5.38
2023-09-17T20:52:57.978Z,5.50
2023-09-17T20:56:02.371Z,19.77
2023-09-17T20:59:06.004Z,9.13
2023-09-17T21:02:09.669Z,8.00
2023-09-17T21:05:16.317Z,6.30
2023-09-17T21:08:20.086Z,6.00
2023-09-17T21:11:23.576Z,5.75
2023-09-17T21:14:28.090Z,5.70
2023-09-17T21:17:31.630Z,5.80
2023-09-17T21:20:36.804Z,5.73
2023-09-17T21:23:40.240Z,5.65
2023-09-17T21:26:44.330Z,6.13
2023-09-17T21:29:47.935Z,5.22
2023-09-17T21:32:51.473Z,5.33
2023-09-17T21:35:56.709Z,5.47
2023-09-17T21:39:00.106Z,5.72
2023-09-17T21:42:03.723Z,5.38
2023-09-17T21:45:08.233Z,5.63
2023-09-17T21:48:12.788Z,5.80
2023-09-17T21:51:17.497Z,5.70
2023-09-17T21:54:21.071Z,5.50
2023-09-17T21:57:24.747Z,5.70
2023-09-17T22:00:28.456Z,5.32
2023-09-17T22:03:32.044Z,6.18
2023-09-17T22:06:37.198Z,5.78
2023-09-17T22:09:41.445Z,7.23
2023-09-17T22:12:45.334Z,9.45
2023-09-17T22:15:52.590Z,6.05
2023-09-17T22:18:56.722Z,5.85
2023-09-17T22:22:01.534Z,5.67
2023-09-17T22:25:05.502Z,5.18
2023-09-17T22:28:08.867Z,5.38
2023-09-17T22:31:13.974Z,5.35
2023-09-17T22:34:17.792Z,4.93
2023-09-17T22:37:22.843Z,5.22
2023-09-17T22:40:26.294Z,5.25
2023-09-17T22:43:29.955Z,5.38
2023-09-17T22:46:33.547Z,5.23
2023-09-17T22:49:37.419Z,4.80
2023-09-17T22:52:42.203Z,4.80
2023-09-17T22:55:45.884Z,5.10
2023-09-17T22:58:49.365Z,5.00
2023-09-17T23:01:53.187Z,4.72
2023-09-17T23:04:56.623Z,4.95
2023-09-17T23:08:01.696Z,4.43
2023-09-17T23:11:06.379Z,4.60
2023-09-17T23:14:11.662Z,4.97
2023-09-17T23:17:14.966Z,4.95
2023-09-17T23:20:18.687Z,5.20
2023-09-17T23:23:23.353Z,4.50
2023-09-17T23:26:29.238Z,5.15
2023-09-17T23:29:32.987Z,4.93
2023-09-17T23:32:37.998Z,4.43
2023-09-17T23:35:41.444Z,4.80
2023-09-17T23:38:46.325Z,5.15
2023-09-17T23:41:50.981Z,4.68
2023-09-17T23:44:54.879Z,4.90
2023-09-17T23:47:58.855Z,5.10
2023-09-17T23:51:03.156Z,4.93
2023-09-17T23:54:08.417Z,4.50
2023-09-17T23:57:14.798Z,5.07
